KWYS/WYS METAR and TAF weather

Enter ICAO airport designator
Station Type Date Time Source
KWYS METAR 2021/06/22 23:15 UTC NOAA

KWYS 222315Z AUTO 23014KT 10SM CLR 29/M01 A2998 RMK AO2


Station Type Date Time Source
KWYS Decoded METAR 2021/06/22 23:15 UTC NOAA

West Yellowstone, MT, United States (KWYS) 44-41N 111-07W
Jun 22, 2021 - 07:15 PM EDT / 2021.06.22 2315 UTC
Wind: from the SW (230 degrees) at 16 MPH (14 KT):0
Visibility: 10 mile(s):0
Sky conditions: clear
Temperature: 84 F (29 C)
Dew Point: 30 F (-1 C)
Relative Humidity: 14%
Pressure (altimeter): 29.98 in. Hg (1015 hPa)
ob: KWYS 222315Z AUTO 23014KT 10SM CLR 29/M01 A2998 RMK AO2
cycle: 23

Station Type Date Time Source
KWYS TAF 2021/06/22 18:46 UTC NOAA

TAF KWYS 221746Z 2218/2318 24010KT P6SM SCT100
FM230000 VRB05KT P6SM SCT050 BKN100
TEMPO 2301/2304 VRB15G25KT -TSRA BKN060CB
FM231000 VRB04KT P6SM BKN150
FM231500 23009KT P6SM SCT150

Example: see airport list